Terminal Aerodrome Forecast
Issued by NWS Jackson, KY

Home | Current Version | Previous Version | Text Only | Print | Product List | Glossary On
Versions: 1 2 3 4 5 6 7 8 9 10 11 12 13 14 15
000
FTUS43 KJKL 300136 AAA
TAFLOZ
TAF AMD
KLOZ 300136Z 3002/3024 34010G20KT P6SM VCTS BKN035CB
     FM300230 VRB03KT P6SM VCTS SCT035 BKN050CB
     FM300500 VRB03KT 2SM BR VCSH OVC025
     FM301500 01006KT P6SM SCT030=

USA.gov is the U.S. government's official web portal to all federal, state and local government web resources and services.